createdAt,value
2022-10-24T00:00:44.196Z,15.49
2022-10-24T00:03:10.427Z,15.52
2022-10-24T00:05:36.620Z,15.50
2022-10-24T00:08:02.730Z,15.47
2022-10-24T00:10:28.827Z,15.48
2022-10-24T00:12:54.941Z,15.47
2022-10-24T00:15:21.046Z,15.47
2022-10-24T00:17:47.151Z,15.47
2022-10-24T00:20:13.286Z,15.48
2022-10-24T00:22:39.386Z,15.51
2022-10-24T00:25:05.484Z,15.53
2022-10-24T00:27:32.099Z,15.54
2022-10-24T00:29:58.183Z,15.57
2022-10-24T00:32:24.272Z,15.59
2022-10-24T00:34:50.382Z,15.59
2022-10-24T00:37:17.074Z,15.55
2022-10-24T00:39:43.202Z,15.59
2022-10-24T00:42:09.328Z,15.63
2022-10-24T00:44:35.432Z,15.64
2022-10-24T00:47:01.759Z,15.63
2022-10-24T00:49:27.875Z,15.65
2022-10-24T00:51:53.953Z,15.66
2022-10-24T00:54:20.042Z,15.67
2022-10-24T00:56:46.264Z,15.70
2022-10-24T00:59:12.360Z,15.74
2022-10-24T01:01:38.755Z,15.83
2022-10-24T01:04:04.912Z,15.86
2022-10-24T01:06:30.998Z,15.88
2022-10-24T01:08:57.177Z,15.89
2022-10-24T01:11:23.289Z,15.95
2022-10-24T01:13:49.380Z,15.99
2022-10-24T01:16:15.634Z,15.99
2022-10-24T01:18:41.828Z,16.04
2022-10-24T01:21:08.211Z,16.04
2022-10-24T01:23:34.337Z,16.03
2022-10-24T01:26:00.928Z,16.03
2022-10-24T01:28:27.101Z,16.03
2022-10-24T01:30:53.194Z,16.02
2022-10-24T01:33:19.347Z,16.03
2022-10-24T01:35:45.439Z,16.00
2022-10-24T01:38:11.564Z,15.98
2022-10-24T01:40:37.667Z,15.98
2022-10-24T01:43:03.750Z,15.95
2022-10-24T01:45:29.848Z,15.93
2022-10-24T01:47:55.959Z,15.96
2022-10-24T01:50:22.055Z,15.93
2022-10-24T01:52:48.181Z,15.92
2022-10-24T01:55:14.358Z,15.92
2022-10-24T01:57:40.460Z,15.90
2022-10-24T02:00:06.558Z,15.88
2022-10-24T02:02:32.665Z,15.87
2022-10-24T02:04:58.755Z,15.82
2022-10-24T02:07:24.850Z,15.81
2022-10-24T02:09:50.963Z,15.81
2022-10-24T02:12:17.064Z,15.76
2022-10-24T02:14:43.152Z,15.73
2022-10-24T02:17:09.266Z,15.71
2022-10-24T02:19:35.362Z,15.71
2022-10-24T02:22:01.454Z,15.74
2022-10-24T02:24:27.573Z,15.74
2022-10-24T02:26:53.672Z,15.73
2022-10-24T02:29:19.757Z,15.76
2022-10-24T02:31:46.384Z,15.82
2022-10-24T02:36:43.489Z,15.88
2022-10-24T02:39:09.636Z,15.88
2022-10-24T02:41:35.720Z,15.88
2022-10-24T02:44:01.814Z,15.88
2022-10-24T02:46:27.935Z,15.88
2022-10-24T02:48:54.022Z,15.89
2022-10-24T02:51:20.120Z,15.88
2022-10-24T02:53:46.220Z,15.88
2022-10-24T02:56:12.313Z,15.88
2022-10-24T02:58:38.409Z,15.89
2022-10-24T03:01:04.598Z,15.91
2022-10-24T03:03:30.791Z,15.89
2022-10-24T03:05:56.890Z,15.87
2022-10-24T03:08:22.998Z,15.85
2022-10-24T03:10:49.078Z,15.87
2022-10-24T03:13:15.164Z,15.88
2022-10-24T03:15:41.323Z,15.85
2022-10-24T03:18:07.469Z,15.84
2022-10-24T03:20:33.548Z,15.87
2022-10-24T03:22:59.665Z,15.84
2022-10-24T03:25:25.746Z,15.83
2022-10-24T03:27:51.846Z,15.81
2022-10-24T03:30:18.024Z,15.81
2022-10-24T03:32:44.386Z,15.80
2022-10-24T03:35:13.325Z,15.80
2022-10-24T03:37:40.465Z,15.76
2022-10-24T03:40:06.555Z,15.79
2022-10-24T03:42:32.651Z,15.76
2022-10-24T03:44:58.760Z,15.74
2022-10-24T03:47:24.854Z,15.74
2022-10-24T03:49:50.953Z,15.73
2022-10-24T03:52:17.065Z,15.72
2022-10-24T03:54:43.156Z,15.72
2022-10-24T03:57:09.277Z,15.69
2022-10-24T03:59:35.395Z,15.68
2022-10-24T04:02:01.587Z,15.66
2022-10-24T04:04:27.762Z,15.68
2022-10-24T04:06:53.868Z,15.64
2022-10-24T04:09:19.958Z,15.62
2022-10-24T04:11:46.037Z,15.63
2022-10-24T04:14:12.136Z,15.63
2022-10-24T04:16:38.238Z,15.63
2022-10-24T04:19:04.352Z,15.63
2022-10-24T04:21:30.475Z,15.63
2022-10-24T04:23:56.585Z,15.63
2022-10-24T04:26:23.540Z,15.63
2022-10-24T04:28:49.650Z,15.62
2022-10-24T04:31:18.165Z,15.64
2022-10-24T04:33:47.127Z,15.63
2022-10-24T04:36:13.592Z,15.64
2022-10-24T04:38:39.677Z,15.64
2022-10-24T04:41:07.382Z,15.63
2022-10-24T04:43:36.067Z,15.66
2022-10-24T04:46:02.156Z,15.63
2022-10-24T04:48:28.249Z,15.66
2022-10-24T04:50:54.348Z,15.64
2022-10-24T04:53:20.449Z,15.66
2022-10-24T04:55:46.536Z,15.63
2022-10-24T04:58:12.666Z,15.63
2022-10-24T05:00:38.789Z,15.63
2022-10-24T05:03:04.878Z,15.64
2022-10-24T05:05:31.004Z,15.65
2022-10-24T05:07:57.099Z,15.63
2022-10-24T05:10:23.193Z,15.66
2022-10-24T05:12:49.396Z,15.64
2022-10-24T05:15:15.557Z,15.65
2022-10-24T05:17:41.657Z,15.71
2022-10-24T05:20:07.763Z,15.63
2022-10-24T05:22:33.868Z,15.63
2022-10-24T05:24:59.961Z,15.63
2022-10-24T05:27:26.566Z,15.60
2022-10-24T05:29:52.665Z,15.60
2022-10-24T05:32:18.755Z,15.61
2022-10-24T05:34:44.878Z,15.61
2022-10-24T05:37:11.064Z,15.60
2022-10-24T05:39:37.262Z,15.61
2022-10-24T05:42:03.659Z,15.61
2022-10-24T05:44:29.760Z,15.62
2022-10-24T05:46:55.861Z,15.60
2022-10-24T05:49:21.981Z,15.61
2022-10-24T05:51:48.071Z,15.60
2022-10-24T05:54:14.195Z,15.59
2022-10-24T05:56:40.359Z,15.57
2022-10-24T05:59:06.449Z,15.54
2022-10-24T06:01:32.634Z,15.54
2022-10-24T06:03:58.788Z,15.52
2022-10-24T06:06:24.894Z,15.50
2022-10-24T06:08:50.984Z,15.51
2022-10-24T06:11:17.128Z,15.48
2022-10-24T06:13:43.227Z,15.46
2022-10-24T06:16:09.332Z,15.46
2022-10-24T06:18:35.440Z,15.48
2022-10-24T06:21:01.525Z,15.47
2022-10-24T06:23:27.632Z,15.44
2022-10-24T06:25:53.756Z,15.47
2022-10-24T06:28:19.841Z,15.47
2022-10-24T06:30:45.935Z,15.48
2022-10-24T06:33:12.042Z,15.46
2022-10-24T06:35:38.137Z,15.52
2022-10-24T06:38:04.231Z,15.50
2022-10-24T06:40:30.629Z,15.51
2022-10-24T06:42:56.734Z,15.51
2022-10-24T06:45:22.816Z,15.51
2022-10-24T06:47:51.907Z,15.52
2022-10-24T06:50:20.188Z,15.52
2022-10-24T06:52:46.285Z,15.54
2022-10-24T06:55:12.414Z,15.58
2022-10-24T06:57:38.500Z,15.54
2022-10-24T07:00:04.624Z,15.55
2022-10-24T07:02:30.839Z,15.58
2022-10-24T07:04:57.054Z,15.58
2022-10-24T07:07:23.206Z,15.56
2022-10-24T07:09:49.317Z,15.55
2022-10-24T07:12:15.453Z,15.58
2022-10-24T07:14:41.592Z,15.61
2022-10-24T07:17:07.724Z,15.57
2022-10-24T07:19:37.187Z,15.60
2022-10-24T07:22:03.599Z,15.60
2022-10-24T07:24:29.713Z,15.68
2022-10-24T07:26:55.817Z,15.67
2022-10-24T07:29:21.919Z,15.68
2022-10-24T07:31:48.522Z,15.67
2022-10-24T07:34:14.690Z,15.71
2022-10-24T07:36:43.830Z,15.76
2022-10-24T07:39:10.177Z,15.87
2022-10-24T07:41:36.269Z,15.91
2022-10-24T07:44:02.373Z,15.86
2022-10-24T07:46:28.501Z,15.85
2022-10-24T07:48:54.598Z,15.92
2022-10-24T07:51:20.696Z,15.91
2022-10-24T07:53:46.821Z,15.90
2022-10-24T07:56:12.917Z,15.96
2022-10-24T07:58:39.007Z,15.96
2022-10-24T08:01:05.138Z,15.95
2022-10-24T08:03:31.286Z,15.95
2022-10-24T08:05:57.363Z,16.02
2022-10-24T08:08:39.200Z,16.04
2022-10-24T08:11:05.612Z,16.05
2022-10-24T08:13:31.764Z,16.05
2022-10-24T08:15:57.863Z,16.01
2022-10-24T08:18:23.952Z,16.01
2022-10-24T08:20:50.045Z,16.03
2022-10-24T08:23:16.188Z,16.04
2022-10-24T08:25:42.284Z,16.08
2022-10-24T08:28:09.263Z,16.13
2022-10-24T08:30:35.464Z,16.20
2022-10-24T08:33:01.561Z,16.12
2022-10-24T08:35:27.706Z,16.17
2022-10-24T08:37:53.811Z,16.21
2022-10-24T08:40:19.903Z,16.37
2022-10-24T08:42:46.313Z,16.42
2022-10-24T08:45:12.560Z,16.48
2022-10-24T08:47:41.621Z,16.65
2022-10-24T08:50:08.067Z,16.67
2022-10-24T08:52:34.165Z,16.78
2022-10-24T08:55:04.667Z,16.75
2022-10-24T09:00:03.463Z,16.81
2022-10-24T09:02:29.665Z,16.90
2022-10-24T09:04:55.878Z,16.88
2022-10-24T09:07:22.117Z,16.83
2022-10-24T09:09:48.244Z,16.91
2022-10-24T09:12:14.357Z,16.92
2022-10-24T09:14:40.459Z,16.91
2022-10-24T09:17:06.580Z,17.08
2022-10-24T09:19:32.730Z,17.05
2022-10-24T09:21:58.817Z,16.96
2022-10-24T09:24:24.915Z,16.87
2022-10-24T09:26:51.025Z,16.90
2022-10-24T09:29:17.120Z,16.98
2022-10-24T09:31:43.208Z,17.10
2022-10-24T09:34:09.333Z,17.10
2022-10-24T09:36:35.478Z,17.14
2022-10-24T09:39:01.566Z,17.18
2022-10-24T09:41:27.724Z,17.07
2022-10-24T09:43:53.841Z,17.18
2022-10-24T09:46:19.930Z,17.13
2022-10-24T09:48:46.024Z,17.24
2022-10-24T09:51:12.131Z,17.25
2022-10-24T09:53:38.218Z,17.13
2022-10-24T09:56:04.328Z,17.22
2022-10-24T09:58:30.422Z,17.11
2022-10-24T10:00:56.902Z,17.03
2022-10-24T10:03:23.970Z,16.99
2022-10-24T10:05:50.452Z,17.04
2022-10-24T10:08:16.536Z,16.98
2022-10-24T10:10:42.647Z,17.01
2022-10-24T10:13:08.749Z,16.98
2022-10-24T10:15:34.841Z,16.92
2022-10-24T10:18:00.951Z,16.83
2022-10-24T10:20:27.041Z,16.95
2022-10-24T10:22:53.146Z,16.82
2022-10-24T10:25:19.271Z,16.89
2022-10-24T10:27:45.623Z,16.89
2022-10-24T10:30:11.877Z,17.01
2022-10-24T10:32:37.990Z,16.99
2022-10-24T10:35:04.096Z,16.85
2022-10-24T10:37:30.190Z,16.87
2022-10-24T10:39:56.284Z,16.74
2022-10-24T10:42:22.363Z,16.85
2022-10-24T10:44:48.469Z,16.88
2022-10-24T10:47:14.579Z,16.80
2022-10-24T10:49:40.680Z,16.73
2022-10-24T10:52:06.793Z,16.88
2022-10-24T10:54:32.913Z,16.83
2022-10-24T10:56:59.004Z,16.84
2022-10-24T10:59:28.535Z,16.87
2022-10-24T11:01:55.751Z,16.82
2022-10-24T11:04:21.987Z,16.77
2022-10-24T11:06:48.149Z,16.72
2022-10-24T11:09:14.269Z,16.72
2022-10-24T11:11:40.363Z,16.79
2022-10-24T11:14:06.445Z,16.66
2022-10-24T11:16:32.554Z,16.67
2022-10-24T11:18:58.665Z,16.67
2022-10-24T11:21:24.758Z,16.64
2022-10-24T11:23:50.869Z,16.64
2022-10-24T11:26:16.981Z,16.74
2022-10-24T11:28:43.083Z,16.84
2022-10-24T11:31:09.223Z,16.85
2022-10-24T11:33:35.314Z,16.85
2022-10-24T11:36:01.417Z,16.96
2022-10-24T11:38:27.512Z,16.98
2022-10-24T11:40:54.906Z,17.16
2022-10-24T11:43:24.629Z,17.16
2022-10-24T11:45:50.914Z,17.08
2022-10-24T11:48:17.028Z,17.15
2022-10-24T11:50:43.108Z,17.17
2022-10-24T11:53:09.215Z,17.06
2022-10-24T11:55:35.307Z,17.02
2022-10-24T11:58:01.400Z,17.07
2022-10-24T12:00:27.512Z,17.15
2022-10-24T12:02:53.636Z,17.05
2022-10-24T12:05:26.090Z,17.01
2022-10-24T12:07:52.220Z,17.14
2022-10-24T12:10:18.316Z,17.15
2022-10-24T12:12:44.421Z,17.25
2022-10-24T12:15:10.536Z,17.20
2022-10-24T12:17:36.628Z,17.21
2022-10-24T12:20:02.732Z,17.27
2022-10-24T12:22:28.859Z,17.29
2022-10-24T12:24:54.955Z,17.20
2022-10-24T12:27:21.046Z,17.19
2022-10-24T12:29:47.165Z,17.30
2022-10-24T12:32:13.259Z,17.32
2022-10-24T12:34:39.360Z,17.44
2022-10-24T12:37:05.470Z,17.42
2022-10-24T12:39:31.566Z,17.29
2022-10-24T12:41:57.670Z,17.28
2022-10-24T12:44:24.145Z,17.34
2022-10-24T12:46:50.232Z,17.33
2022-10-24T12:49:16.316Z,17.48
2022-10-24T12:51:42.452Z,17.57
2022-10-24T12:54:08.533Z,17.44
2022-10-24T12:56:34.618Z,17.27
2022-10-24T12:59:01.236Z,17.42
2022-10-24T13:01:27.571Z,17.40
2022-10-24T13:03:53.798Z,17.33
2022-10-24T13:06:20.440Z,17.37
2022-10-24T13:08:46.577Z,17.22
2022-10-24T13:11:12.664Z,17.16
2022-10-24T13:13:38.782Z,17.10
2022-10-24T13:16:04.892Z,16.91
2022-10-24T13:18:30.992Z,16.79
2022-10-24T13:20:57.100Z,16.67
2022-10-24T13:23:23.179Z,16.74
2022-10-24T13:25:49.275Z,16.89
2022-10-24T13:28:15.394Z,16.97
2022-10-24T13:30:43.737Z,16.95
2022-10-24T13:33:12.100Z,16.89
2022-10-24T13:35:38.226Z,16.82
2022-10-24T13:38:07.709Z,16.83
2022-10-24T13:40:33.980Z,16.90
2022-10-24T13:43:00.125Z,16.89
2022-10-24T13:45:26.222Z,16.78
2022-10-24T13:47:52.309Z,16.70
2022-10-24T13:50:18.431Z,16.74
2022-10-24T13:52:48.946Z,16.81
2022-10-24T13:55:15.525Z,16.78
2022-10-24T13:57:41.656Z,16.94
2022-10-24T14:00:07.755Z,16.96
2022-10-24T14:02:33.927Z,16.83
2022-10-24T14:05:00.068Z,16.77
2022-10-24T14:07:26.160Z,16.62
2022-10-24T14:09:52.299Z,16.80
2022-10-24T14:12:18.947Z,16.78
2022-10-24T14:14:45.074Z,16.75
2022-10-24T14:17:11.168Z,16.70
2022-10-24T14:19:38.766Z,16.67
2022-10-24T14:22:05.292Z,16.66
2022-10-24T14:24:31.386Z,16.70
2022-10-24T14:26:57.488Z,16.57
2022-10-24T14:29:23.578Z,16.58
2022-10-24T14:31:49.667Z,16.56
2022-10-24T14:34:15.780Z,16.53
2022-10-24T14:36:41.872Z,16.61
2022-10-24T14:39:07.967Z,16.57
2022-10-24T14:41:34.167Z,16.53
2022-10-24T14:44:00.276Z,16.53
2022-10-24T14:46:26.373Z,16.56
2022-10-24T14:48:52.783Z,16.54
2022-10-24T14:51:18.889Z,16.54
2022-10-24T14:53:45.032Z,16.50
2022-10-24T14:56:11.152Z,16.42
2022-10-24T14:58:37.255Z,16.40
2022-10-24T15:01:03.396Z,16.37
2022-10-24T15:03:29.536Z,16.38
2022-10-24T15:05:55.631Z,16.31
2022-10-24T15:08:23.008Z,16.31
2022-10-24T15:10:49.486Z,16.28
2022-10-24T15:13:15.594Z,16.36
2022-10-24T15:15:41.692Z,16.46
2022-10-24T15:18:07.805Z,16.59
2022-10-24T15:20:33.928Z,16.77
2022-10-24T15:23:00.055Z,16.80
2022-10-24T15:25:26.157Z,16.92
2022-10-24T15:27:52.264Z,16.64
2022-10-24T15:30:18.411Z,16.51
2022-10-24T15:32:44.547Z,16.35
2022-10-24T15:35:10.655Z,16.21
2022-10-24T15:37:36.760Z,16.12
2022-10-24T15:40:02.882Z,16.13
2022-10-24T15:42:28.979Z,16.06
2022-10-24T15:44:55.053Z,16.01
2022-10-24T15:47:21.173Z,15.86
2022-10-24T15:49:47.252Z,15.92
2022-10-24T15:52:13.358Z,15.95
2022-10-24T15:54:39.956Z,15.92
2022-10-24T15:57:06.048Z,15.85
2022-10-24T15:59:32.133Z,15.88
2022-10-24T16:01:58.265Z,15.74
2022-10-24T16:04:24.608Z,15.81
2022-10-24T16:06:50.782Z,15.75
2022-10-24T16:09:16.891Z,15.79
2022-10-24T16:11:42.980Z,15.72
2022-10-24T16:14:09.083Z,15.68
2022-10-24T16:16:35.249Z,15.71
2022-10-24T16:19:01.333Z,15.71
2022-10-24T16:21:27.453Z,15.71
2022-10-24T16:23:53.623Z,15.67
2022-10-24T16:26:19.733Z,15.69
2022-10-24T16:28:45.822Z,15.64
2022-10-24T16:31:11.920Z,15.62
2022-10-24T16:33:38.012Z,15.56
2022-10-24T16:36:04.092Z,15.60
2022-10-24T16:38:30.197Z,15.60
2022-10-24T16:40:56.285Z,15.53
2022-10-24T16:43:22.488Z,15.52
2022-10-24T16:45:50.950Z,15.52
2022-10-24T16:48:17.045Z,15.45
2022-10-24T16:50:43.139Z,15.39
2022-10-24T16:53:09.266Z,15.34
2022-10-24T16:55:35.354Z,15.35
2022-10-24T16:58:01.449Z,15.33
2022-10-24T17:00:27.573Z,15.34
2022-10-24T17:02:53.739Z,15.33
2022-10-24T17:05:19.827Z,15.28
2022-10-24T17:07:46.127Z,15.26
2022-10-24T17:10:12.342Z,15.23
2022-10-24T17:12:38.454Z,15.22
2022-10-24T17:15:04.591Z,15.21
2022-10-24T17:17:30.709Z,15.22
2022-10-24T17:19:56.919Z,15.16
2022-10-24T17:22:23.118Z,15.12
2022-10-24T17:24:49.212Z,15.07
2022-10-24T17:27:15.297Z,15.03
2022-10-24T17:29:41.435Z,14.98
2022-10-24T17:32:07.534Z,14.93
2022-10-24T17:34:33.631Z,14.88
2022-10-24T17:36:59.740Z,14.90
2022-10-24T17:39:25.907Z,14.90
2022-10-24T17:41:52.107Z,14.88
2022-10-24T17:44:18.241Z,14.89
2022-10-24T17:46:44.334Z,14.88
2022-10-24T17:49:10.465Z,14.90
2022-10-24T17:51:36.606Z,14.93
2022-10-24T17:54:02.712Z,14.94
2022-10-24T17:56:28.809Z,14.96
2022-10-24T17:58:54.934Z,14.95
2022-10-24T18:01:21.099Z,14.88
2022-10-24T18:03:47.284Z,14.94
2022-10-24T18:06:13.425Z,14.91
2022-10-24T18:08:39.524Z,14.91
2022-10-24T18:11:05.638Z,14.95
2022-10-24T18:13:31.815Z,14.92
2022-10-24T18:15:57.910Z,14.95
2022-10-24T18:18:24.011Z,14.95
2022-10-24T18:20:50.144Z,14.93
2022-10-24T18:23:16.685Z,14.89
2022-10-24T18:25:42.850Z,14.90
2022-10-24T18:28:09.226Z,14.91
2022-10-24T18:30:35.382Z,14.89
2022-10-24T18:33:01.604Z,14.88
2022-10-24T18:35:27.700Z,14.63
2022-10-24T18:37:53.796Z,13.59
2022-10-24T18:40:20.000Z,13.16
2022-10-24T18:42:46.398Z,12.67
2022-10-24T18:45:12.850Z,10.28
2022-10-24T18:47:39.219Z,11.25
2022-10-24T18:50:05.348Z,11.23
2022-10-24T18:52:31.432Z,11.34
2022-10-24T18:54:57.664Z,11.47
2022-10-24T18:57:23.784Z,11.38
2022-10-24T18:59:49.883Z,11.29
2022-10-24T19:02:16.060Z,11.33
2022-10-24T19:04:42.220Z,11.37
2022-10-24T19:07:08.317Z,11.30
2022-10-24T19:09:34.400Z,11.42
2022-10-24T19:12:00.528Z,11.52
2022-10-24T19:14:26.614Z,11.48
2022-10-24T19:16:52.696Z,11.45
2022-10-24T19:19:18.810Z,11.56
2022-10-24T19:21:46.479Z,11.62
2022-10-24T19:24:15.163Z,11.51
2022-10-24T19:26:41.577Z,11.61
2022-10-24T19:29:07.661Z,11.62
2022-10-24T19:31:33.742Z,11.72
2022-10-24T19:33:59.862Z,11.83
2022-10-24T19:38:53.011Z,11.40
2022-10-24T19:41:19.198Z,11.45
2022-10-24T19:43:45.281Z,11.47
2022-10-24T19:46:20.126Z,11.59
2022-10-24T19:48:46.557Z,11.49
2022-10-24T19:51:12.642Z,11.36
2022-10-24T19:53:38.743Z,11.49
2022-10-24T19:56:04.850Z,11.44
2022-10-24T19:58:30.955Z,11.48
2022-10-24T20:00:57.082Z,11.54
2022-10-24T20:03:23.332Z,11.56
2022-10-24T20:05:49.421Z,11.45
2022-10-24T20:08:15.508Z,11.47
2022-10-24T20:10:41.612Z,11.41
2022-10-24T20:13:07.700Z,11.51
2022-10-24T20:15:33.799Z,11.55
2022-10-24T20:17:59.918Z,11.61
2022-10-24T20:20:26.011Z,11.67
2022-10-24T20:22:52.094Z,11.71
2022-10-24T20:25:18.232Z,11.75
2022-10-24T20:27:44.614Z,11.81
2022-10-24T20:30:10.912Z,11.80
2022-10-24T20:32:37.059Z,11.89
2022-10-24T20:35:03.157Z,11.88
2022-10-24T20:37:29.260Z,11.96
2022-10-24T20:39:55.380Z,11.97
2022-10-24T20:42:21.471Z,12.00
2022-10-24T20:44:47.586Z,12.00
2022-10-24T20:47:13.710Z,12.03
2022-10-24T20:49:39.800Z,12.09
2022-10-24T20:52:05.947Z,12.12
2022-10-24T20:54:32.081Z,12.15
2022-10-24T20:56:58.165Z,12.23
2022-10-24T20:59:24.260Z,12.21
2022-10-24T21:01:50.513Z,12.21
2022-10-24T21:04:19.936Z,12.24
2022-10-24T21:06:47.073Z,12.27
2022-10-24T21:09:13.178Z,12.29
2022-10-24T21:11:39.265Z,12.19
2022-10-24T21:14:05.354Z,12.19
2022-10-24T21:16:31.469Z,12.08
2022-10-24T21:18:57.547Z,11.94
2022-10-24T21:21:23.641Z,11.86
2022-10-24T21:23:49.809Z,11.85
2022-10-24T21:26:15.929Z,11.82
2022-10-24T21:28:42.020Z,11.83
2022-10-24T21:31:08.139Z,11.94
2022-10-24T21:33:34.337Z,11.99
2022-10-24T21:36:00.431Z,12.04
2022-10-24T21:38:26.532Z,12.12
2022-10-24T21:40:52.615Z,12.21
2022-10-24T21:43:18.718Z,12.22
2022-10-24T21:45:44.882Z,12.18
2022-10-24T21:48:10.984Z,12.20
2022-10-24T21:50:37.143Z,12.22
2022-10-24T21:53:03.322Z,12.29
2022-10-24T21:55:29.414Z,12.26
2022-10-24T21:57:55.497Z,12.26
2022-10-24T22:00:21.611Z,12.26
2022-10-24T22:02:47.984Z,12.20
2022-10-24T22:05:14.324Z,12.21
2022-10-24T22:07:40.436Z,12.19
2022-10-24T22:10:06.526Z,12.15
2022-10-24T22:12:32.611Z,12.12
2022-10-24T22:14:58.725Z,12.07
2022-10-24T22:17:24.813Z,12.13
2022-10-24T22:19:50.905Z,12.14
2022-10-24T22:22:17.040Z,12.10
2022-10-24T22:24:43.131Z,12.05
2022-10-24T22:27:09.224Z,12.05
2022-10-24T22:29:35.336Z,11.99
2022-10-24T22:32:01.448Z,12.03
2022-10-24T22:34:27.533Z,12.08
2022-10-24T22:36:54.121Z,12.01
2022-10-24T22:39:20.216Z,11.98
2022-10-24T22:41:46.310Z,12.06
2022-10-24T22:44:12.427Z,12.09
2022-10-24T22:46:38.526Z,12.09
2022-10-24T22:49:04.708Z,12.14
2022-10-24T22:51:30.851Z,12.18
2022-10-24T22:53:56.976Z,12.15
2022-10-24T22:56:23.096Z,12.21
2022-10-24T22:58:49.233Z,12.17
2022-10-24T23:01:15.426Z,12.21
2022-10-24T23:03:41.583Z,12.24
2022-10-24T23:06:07.705Z,12.24
2022-10-24T23:08:33.812Z,12.27
2022-10-24T23:10:59.897Z,12.27
2022-10-24T23:13:26.000Z,12.25
2022-10-24T23:15:52.082Z,12.32
2022-10-24T23:18:18.390Z,12.35
2022-10-24T23:20:45.005Z,12.48
2022-10-24T23:23:24.267Z,12.62
2022-10-24T23:25:54.670Z,12.66
2022-10-24T23:28:20.762Z,12.69
2022-10-24T23:30:46.866Z,12.72
2022-10-24T23:33:12.964Z,12.74
2022-10-24T23:35:39.054Z,12.76
2022-10-24T23:38:05.145Z,12.75
2022-10-24T23:40:31.600Z,12.78
2022-10-24T23:42:57.699Z,12.78
2022-10-24T23:45:23.815Z,12.83
2022-10-24T23:47:49.927Z,12.83
2022-10-24T23:50:16.016Z,12.85
2022-10-24T23:52:42.120Z,12.85
2022-10-24T23:55:08.302Z,12.87
2022-10-24T23:57:34.393Z,12.88
